createdAt,value
2023-03-24T18:11:01.606Z,13.50
2023-03-24T18:11:12.665Z,14.70
2023-03-24T18:11:22.899Z,15.40
2023-03-24T18:11:32.922Z,15.00
2023-03-24T18:11:43.368Z,13.90
2023-03-24T18:11:53.141Z,13.90
2023-03-24T18:12:03.122Z,13.40
2023-03-24T18:12:13.463Z,13.00
2023-03-24T18:12:23.731Z,13.00
2023-03-24T18:12:34.878Z,15.30
2023-03-24T18:12:44.168Z,16.20
2023-03-24T18:12:55.826Z,17.90
2023-03-24T18:13:04.839Z,16.80
2023-03-24T18:13:14.253Z,15.80
2023-03-24T18:13:24.173Z,14.30
2023-03-24T18:13:44.379Z,14.10
2023-03-24T18:13:54.719Z,14.10
2023-03-24T18:14:04.888Z,14.80
2023-03-24T18:14:14.855Z,17.50
2023-03-24T18:14:25.878Z,18.10
2023-03-24T18:14:35.762Z,17.10
2023-03-24T18:14:45.351Z,16.30
2023-03-24T18:14:55.805Z,16.00
2023-03-24T18:15:05.462Z,16.50
2023-03-24T18:15:15.546Z,15.90
2023-03-24T18:15:25.940Z,16.00
2023-03-24T18:15:36.262Z,15.70
2023-03-24T18:15:45.926Z,15.90
2023-03-24T18:15:55.988Z,16.50
2023-03-24T18:16:17.682Z,16.50
2023-03-24T18:16:27.253Z,16.10
2023-03-24T18:16:33.180Z,16.20
2023-03-24T18:16:43.358Z,16.20
2023-03-24T18:16:53.399Z,16.10
2023-03-24T18:17:04.826Z,15.80
2023-03-24T18:17:15.140Z,15.80
2023-03-24T18:17:33.823Z,16.10
2023-03-24T18:17:43.921Z,17.00
2023-03-24T18:17:54.870Z,16.90
2023-03-24T18:18:04.244Z,17.10
2023-03-24T18:18:14.274Z,16.40
2023-03-24T18:18:24.631Z,15.90
2023-03-24T18:18:35.599Z,15.50
2023-03-24T18:18:45.692Z,15.60
2023-03-24T18:18:55.008Z,16.20
2023-03-24T18:19:05.082Z,17.10
2023-03-24T18:19:15.168Z,17.30
2023-03-24T18:19:25.223Z,16.70
2023-03-24T18:19:45.641Z,16.50
2023-03-24T18:19:56.029Z,17.30
2023-03-24T18:20:05.760Z,16.80
2023-03-24T18:20:15.917Z,16.50
2023-03-24T18:20:26.140Z,15.90
2023-03-24T18:20:36.211Z,16.40
2023-03-24T18:20:47.020Z,17.40
2023-03-24T18:20:56.409Z,19.70
2023-03-24T18:21:06.747Z,21.40
2023-03-24T18:21:17.479Z,22.20
2023-03-24T18:21:26.703Z,21.70
2023-03-24T18:21:37.080Z,21.60
2023-03-24T18:21:47.108Z,22.00
2023-03-24T18:21:57.308Z,22.20
2023-03-24T18:22:07.337Z,21.90
2023-03-24T18:22:27.664Z,20.20
2023-03-24T18:22:37.749Z,19.60
2023-03-24T18:22:47.656Z,20.10
2023-03-24T18:22:57.966Z,21.50
2023-03-24T18:23:08.230Z,22.30
2023-03-24T18:23:18.081Z,23.90
2023-03-24T18:23:28.298Z,24.60
2023-03-24T18:23:38.392Z,23.40
2023-03-24T18:23:48.435Z,21.90
2023-03-24T18:23:58.548Z,20.60
2023-03-24T18:24:08.827Z,21.80
2023-03-24T18:24:18.920Z,22.30
2023-03-24T18:24:28.927Z,21.40
2023-03-24T18:24:39.195Z,24.40
2023-03-24T18:24:49.223Z,23.50
2023-03-24T18:25:00.646Z,23.70
2023-03-24T18:25:09.566Z,19.50
2023-03-24T18:25:20.429Z,18.70
2023-03-24T18:25:29.866Z,19.90
2023-03-24T18:25:39.929Z,21.50
2023-03-24T18:25:49.971Z,23.20
2023-03-24T18:26:10.254Z,23.90
2023-03-24T18:26:20.432Z,22.80
2023-03-24T18:26:30.576Z,21.50
2023-03-24T18:26:40.621Z,20.10
2023-03-24T18:26:50.841Z,19.90
2023-03-24T18:27:00.974Z,18.60
2023-03-24T18:27:11.039Z,18.70
2023-03-24T18:27:21.152Z,20.40
2023-03-24T18:27:31.319Z,23.20
2023-03-24T18:27:41.413Z,28.50
2023-03-24T18:27:51.499Z,28.80
2023-03-24T18:28:01.633Z,26.30
2023-03-24T18:28:11.743Z,20.60
2023-03-24T18:28:21.750Z,18.80
2023-03-24T18:28:32.089Z,19.30
2023-03-24T18:28:42.400Z,19.70
2023-03-24T18:28:52.855Z,19.70
2023-03-24T18:29:02.417Z,20.30
2023-03-24T18:29:12.507Z,21.10
2023-03-24T18:29:22.722Z,20.50
2023-03-24T18:29:33.333Z,21.20
2023-03-24T18:29:42.926Z,20.90
2023-03-24T18:29:54.013Z,20.70
2023-03-24T18:30:03.200Z,19.10
2023-03-24T18:30:13.227Z,17.90
2023-03-24T18:30:23.390Z,17.50
2023-03-24T18:30:33.456Z,17.40
2023-03-24T18:30:43.584Z,18.00
2023-03-24T18:32:18.271Z,17.60
2023-03-24T18:32:32.098Z,18.10
2023-03-24T18:32:39.472Z,17.20
2023-03-24T18:32:49.324Z,16.40
2023-03-24T18:32:59.836Z,15.70
2023-03-24T18:33:09.729Z,16.10
2023-03-24T18:33:20.382Z,16.60
2023-03-24T18:33:40.034Z,17.50
2023-03-24T18:33:51.054Z,18.60
2023-03-24T18:34:01.169Z,19.90
2023-03-24T18:34:10.652Z,20.30
2023-03-24T18:34:21.495Z,19.70
2023-03-24T18:34:30.781Z,19.60
2023-03-24T18:34:40.818Z,18.90
2023-03-24T18:34:59.980Z,18.50
2023-03-24T18:35:11.160Z,19.20
2023-03-24T18:35:21.184Z,18.90
2023-03-24T18:35:32.067Z,18.80
2023-03-24T18:35:41.504Z,18.50
2023-03-24T18:35:51.518Z,19.00
2023-03-24T18:36:01.612Z,18.70
2023-03-24T18:36:12.080Z,18.00
2023-03-24T18:36:22.125Z,18.40
2023-03-24T18:36:32.203Z,19.50
2023-03-24T18:36:42.181Z,23.00
2023-03-24T18:36:52.877Z,55.60
2023-03-24T18:37:02.382Z,55.30
2023-03-24T18:37:12.455Z,52.70
2023-03-24T18:37:22.664Z,18.70
2023-03-24T18:37:33.198Z,18.20
2023-03-24T18:37:42.859Z,17.30
2023-03-24T18:37:53.108Z,17.00
2023-03-24T18:38:04.164Z,16.40
2023-03-24T18:38:13.438Z,16.10
2023-03-24T18:38:23.308Z,15.90
2023-03-24T18:38:33.478Z,16.20
2023-03-24T18:38:43.487Z,16.30
2023-03-24T18:38:53.728Z,17.00
2023-03-24T18:39:13.875Z,17.20
2023-03-24T18:39:24.061Z,16.50
2023-03-24T18:39:34.285Z,17.10
2023-03-24T18:39:44.272Z,16.80
2023-03-24T18:39:54.491Z,17.10
2023-03-24T18:40:04.623Z,16.60
2023-03-24T18:40:14.785Z,33.40
2023-03-24T18:40:24.929Z,84.00
2023-03-24T18:40:35.075Z,95.90
2023-03-24T18:40:45.150Z,70.90
2023-03-24T18:40:55.320Z,26.00
2023-03-24T18:41:05.620Z,18.40
2023-03-24T18:41:16.652Z,19.80
2023-03-24T18:41:25.747Z,22.00
2023-03-24T18:41:35.669Z,23.10
2023-03-24T18:41:45.824Z,22.40
2023-03-24T18:41:55.957Z,22.40
2023-03-24T18:42:05.934Z,23.10
2023-03-24T18:42:26.554Z,22.70
2023-03-24T18:42:36.736Z,22.00
2023-03-24T18:42:46.632Z,20.80
2023-03-24T18:42:56.748Z,20.50
2023-03-24T18:43:06.968Z,19.60
2023-03-24T18:43:17.006Z,19.20
2023-03-24T18:43:27.024Z,17.90
2023-03-24T18:43:37.286Z,17.20
2023-03-24T18:43:47.351Z,16.60
2023-03-24T18:43:57.397Z,16.80
2023-03-24T18:44:08.274Z,16.50
2023-03-24T18:44:17.709Z,15.90
2023-03-24T18:44:27.724Z,16.10
2023-03-24T18:44:38.013Z,16.30
2023-03-24T18:44:48.107Z,17.10
2023-03-24T18:44:58.610Z,17.40
2023-03-24T18:45:19.478Z,19.30
2023-03-24T18:45:29.045Z,19.50
2023-03-24T18:45:38.571Z,18.80
2023-03-24T18:45:48.844Z,18.40
2023-03-24T18:45:58.869Z,18.10
2023-03-24T18:46:08.950Z,18.10
2023-03-24T18:46:29.157Z,18.60
2023-03-24T18:46:40.252Z,19.00
2023-03-24T18:46:49.643Z,19.50
2023-03-24T18:46:59.513Z,21.00
2023-03-24T18:47:09.723Z,21.10
2023-03-24T18:47:19.804Z,21.40
2023-03-24T18:47:30.034Z,20.80
2023-03-24T18:47:50.775Z,32.70
2023-03-24T18:48:00.489Z,43.90
2023-03-24T18:48:10.584Z,47.10
2023-03-24T18:48:23.878Z,48.00
2023-03-24T18:48:30.814Z,41.40
2023-03-24T18:48:40.938Z,38.00
2023-03-24T18:48:51.774Z,36.50
2023-03-24T18:49:01.005Z,36.60
2023-03-24T18:49:11.148Z,36.90
2023-03-24T18:49:31.634Z,37.10
2023-03-24T18:49:41.579Z,34.20
2023-03-24T18:49:51.733Z,28.50
2023-03-24T18:50:01.722Z,24.10
2023-03-24T18:50:12.646Z,22.50
2023-03-24T18:50:21.976Z,23.00
2023-03-24T18:50:31.989Z,27.40
2023-03-24T18:50:42.086Z,27.00
2023-03-24T18:50:52.415Z,27.40
2023-03-24T18:51:02.498Z,26.50
2023-03-24T18:51:22.541Z,23.90
2023-03-24T18:51:32.843Z,20.40
2023-03-24T18:51:43.050Z,20.60
2023-03-24T18:51:53.096Z,19.20
2023-03-24T18:52:03.280Z,18.80
2023-03-24T18:52:13.154Z,18.30
2023-03-24T18:52:23.297Z,19.90
2023-03-24T18:55:26.306Z,22.20
2023-03-24T18:55:37.449Z,22.40
2023-03-24T18:55:48.489Z,21.20
2023-03-24T18:55:57.717Z,21.80
2023-03-24T18:56:07.728Z,22.60
2023-03-24T18:56:17.836Z,22.50
2023-03-24T18:56:28.036Z,20.30
2023-03-24T18:56:39.114Z,18.70
2023-03-24T18:56:58.346Z,20.90
2023-03-24T18:57:08.440Z,21.80
2023-03-24T18:57:18.663Z,30.10
2023-03-24T18:57:28.642Z,43.70
2023-03-24T18:57:38.904Z,47.50
2023-03-24T18:57:48.921Z,39.90
2023-03-24T18:58:00.106Z,28.10
2023-03-24T18:58:09.336Z,25.70
2023-03-24T18:58:19.931Z,26.80
2023-03-24T18:58:29.659Z,29.20
2023-03-24T18:58:40.716Z,30.60
2023-03-24T18:58:51.590Z,30.30
2023-03-24T18:59:10.165Z,27.40
2023-03-24T18:59:20.308Z,26.40
2023-03-24T18:59:31.143Z,24.70
2023-03-24T18:59:40.408Z,23.80
2023-03-24T18:59:50.563Z,22.50
2023-03-24T19:00:00.806Z,22.90
2023-03-24T19:00:10.861Z,24.00
2023-03-24T19:00:20.998Z,25.60
2023-03-24T19:00:41.685Z,24.70
2023-03-24T19:00:51.318Z,24.40
2023-03-24T19:01:02.747Z,24.30
2023-03-24T19:01:11.688Z,24.30
2023-03-24T19:01:21.831Z,24.20
2023-03-24T19:01:31.895Z,25.40
2023-03-24T19:01:42.096Z,27.20
2023-03-24T19:01:52.158Z,28.40
2023-03-24T19:02:12.501Z,28.20
2023-03-24T19:02:23.439Z,27.80
2023-03-24T19:02:32.577Z,30.20
2023-03-24T19:02:42.805Z,32.40
2023-03-24T19:02:53.032Z,41.10
2023-03-24T19:03:03.043Z,39.00
2023-03-24T19:03:13.298Z,36.90
2023-03-24T19:03:32.429Z,31.30
2023-03-24T19:03:43.528Z,29.70
2023-03-24T19:03:53.631Z,29.70
2023-03-24T19:04:04.526Z,26.20
2023-03-24T19:04:13.851Z,26.10
2023-03-24T19:04:24.001Z,24.80
2023-03-24T19:04:34.199Z,22.30
2023-03-24T19:04:44.377Z,22.00
2023-03-24T19:04:55.067Z,22.90
2023-03-24T19:05:04.515Z,24.70
2023-03-24T19:05:14.706Z,26.60
2023-03-24T19:05:24.878Z,25.90
2023-03-24T19:05:34.985Z,25.20
2023-03-24T19:05:45.250Z,23.60
2023-03-24T19:05:56.185Z,23.90
2023-03-24T19:06:05.451Z,24.40
2023-03-24T19:06:15.502Z,23.00
2023-03-24T19:06:25.773Z,22.00
2023-03-24T19:06:35.809Z,21.40
2023-03-24T19:06:45.961Z,21.40
2023-03-24T19:06:56.703Z,21.40
2023-03-24T19:07:06.187Z,20.90
2023-03-24T19:07:16.360Z,19.50
2023-03-24T19:07:26.676Z,19.10
2023-03-24T19:07:36.710Z,18.80
2023-03-24T19:07:46.772Z,19.60
2023-03-24T19:07:56.847Z,19.30
2023-03-24T19:08:07.322Z,19.90
2023-03-24T19:08:19.851Z,19.60
2023-03-24T19:08:27.313Z,19.90
2023-03-24T19:08:37.673Z,20.60
2023-03-24T19:08:48.636Z,22.20
2023-03-24T19:08:57.671Z,22.70
2023-03-24T19:09:07.725Z,22.00
2023-03-24T19:09:27.049Z,22.60
2023-03-24T19:09:38.423Z,22.00
2023-03-24T19:09:48.372Z,20.30
2023-03-24T19:09:58.692Z,20.70
2023-03-24T19:10:08.558Z,22.70
2023-03-24T19:10:19.609Z,22.90
2023-03-24T19:10:28.914Z,22.70
2023-03-24T19:10:39.239Z,21.80
2023-03-24T19:10:49.699Z,21.10
2023-03-24T19:10:59.273Z,23.70
2023-03-24T19:11:09.366Z,26.80
2023-03-24T19:11:20.560Z,26.80
2023-03-24T19:11:29.766Z,25.30
2023-03-24T19:11:41.471Z,24.50
2023-03-24T19:11:49.798Z,25.30
2023-03-24T19:12:00.258Z,25.00
2023-03-24T19:12:10.299Z,23.40
2023-03-24T19:12:30.452Z,21.70
2023-03-24T19:12:40.475Z,21.20
2023-03-24T19:12:50.647Z,20.90
2023-03-24T19:13:00.899Z,21.50
